0TX1 – Local Weather Observations

Pecan Plantation / Sawgrass Ct

This weather station is operated by a private user located just north of the field. See WeatherUnderground for the full data feed and other nearby stations.

Last updated:
2018-05-21 00:55:01 (7:55 pm)

Temperature: 74.3 °F

Sunrise / Sunset: 6:27 am / 8:26 pm

Moonrise / Moonset: 11:43 am / 12:54 am

Winds gusting from the Southeast at 0.0 mph

Nearby METARs

KGDJ 210035Z AUTO 13008KT 10SM CLR 25/19 A3000 RMK AO2 T02470191 PWINO

KCPT 210055Z AUTO 16005KT 10SM CLR 23/20 A3002 RMK AO2

KFWS 210035Z AUTO 16003KT CLR 24/19 A3000 RMK AO2 T02350191 PWINO